Time;durP1;ratioP1;P1;durP2;ratioP2;P2;SDS_P1;SDS_P2;PMS_P1;PMS_P2;Temp;Humidity;BMP_temperature;BMP_pressure;BME280_temperature;BME280_humidity;BME280_pressure;Samples;Min_cycle;Max_cycle;Signal;HPM_P1;HPM_P2
2022/09/28 00:01:15;;;;;;;31.00;20.17;;;12.00;99.90;;;;;;4978020;28;20205;-75
2022/09/28 00:03:43;;;;;;;32.03;19.70;;;11.90;99.90;;;;;;4982206;28;20188;-73
2022/09/28 00:06:12;;;;;;;33.53;20.90;;;11.90;99.90;;;;;;4997303;28;20369;-74
2022/09/28 00:08:39;;;;;;;32.30;21.03;;;11.70;99.90;;;;;;4981783;28;20208;-77
2022/09/28 00:11:10;;;;;;;32.63;20.60;;;11.70;99.90;;;;;;4975084;28;20235;-75
2022/09/28 00:13:37;;;;;;;32.33;20.00;;;11.70;99.90;;;;;;4978189;28;20252;-73
2022/09/28 00:16:09;;;;;;;28.47;18.30;;;11.70;99.90;;;;;;4971349;28;20635;-74
2022/09/28 00:18:37;;;;;;;27.37;17.70;;;11.60;99.90;;;;;;4977004;28;20277;-74
2022/09/28 00:21:31;;;;;;;25.93;16.60;;;11.60;99.90;;;;;;4965427;28;20198;-73
2022/09/28 00:24:13;;;;;;;21.23;14.73;;;11.60;99.90;;;;;;4970410;28;20197;-75
2022/09/28 00:26:55;;;;;;;21.80;14.10;;;11.50;99.90;;;;;;4977065;28;20211;-75
2022/09/28 00:29:28;;;;;;;19.00;12.60;;;11.40;99.90;;;;;;4974250;28;20284;-74
2022/09/28 00:32:01;;;;;;;20.20;13.20;;;11.40;99.90;;;;;;4960735;28;20232;-76
2022/09/28 00:34:44;;;;;;;19.90;12.60;;;11.40;99.90;;;;;;4977289;28;20211;-75
2022/09/28 00:37:12;;;;;;;16.87;11.10;;;11.30;99.90;;;;;;4977699;28;20276;-75
2022/09/28 00:39:40;;;;;;;19.93;12.20;;;11.20;99.90;;;;;;4977115;28;20217;-75
2022/09/28 00:42:19;;;;;;;16.80;10.00;;;11.20;99.90;;;;;;4994678;28;20197;-77
2022/09/28 00:44:50;;;;;;;15.50;10.30;;;11.20;99.90;;;;;;4977236;28;20291;-76
2022/09/28 00:47:48;;;;;;;15.90;9.43;;;11.20;99.90;;;;;;4957741;28;20774;-75
2022/09/28 00:50:32;;;;;;;13.07;8.53;;;11.10;99.90;;;;;;4975131;28;20669;-76
2022/09/28 00:53:20;;;;;;;12.17;7.20;;;11.00;99.90;;;;;;4974621;28;20260;-75
2022/09/28 00:55:57;;;;;;;9.10;6.10;;;11.00;99.90;;;;;;4976916;28;20193;-75
2022/09/28 00:58:28;;;;;;;9.13;5.60;;;10.90;99.90;;;;;;4976252;28;20216;-76
2022/09/28 01:00:56;;;;;;;10.70;5.83;;;10.80;99.90;;;;;;4992708;28;20201;-76
2022/09/28 01:03:25;;;;;;;12.57;6.27;;;10.80;99.90;;;;;;4970593;28;20257;-75
2022/09/28 01:05:54;;;;;;;8.93;5.70;;;10.80;99.90;;;;;;4957128;28;20229;-75
2022/09/28 01:08:23;;;;;;;8.97;5.90;;;10.80;99.90;;;;;;4968894;28;20260;-76
2022/09/28 01:10:50;;;;;;;8.43;5.40;;;10.80;99.90;;;;;;4974690;28;20219;-76
2022/09/28 01:13:19;;;;;;;8.70;5.37;;;10.80;99.90;;;;;;4957378;28;20261;-75
2022/09/28 01:15:55;;;;;;;8.20;5.10;;;10.80;99.90;;;;;;4979907;28;20195;-76
2022/09/28 01:18:33;;;;;;;9.43;5.67;;;10.70;99.90;;;;;;4976512;28;20216;-74
2022/09/28 01:21:09;;;;;;;8.30;5.37;;;10.70;99.90;;;;;;4992767;28;20201;-75
2022/09/28 01:23:48;;;;;;;8.67;5.60;;;10.80;99.90;;;;;;4960531;28;20288;-75
2022/09/28 01:26:42;;;;;;;8.70;5.23;;;10.70;99.90;;;;;;4994113;28;20197;-75
2022/09/28 01:29:17;;;;;;;9.27;6.00;;;10.70;99.90;;;;;;4976389;28;20217;-75
2022/09/28 01:32:12;;;;;;;9.37;5.67;;;10.80;99.90;;;;;;4976690;28;20208;-76
2022/09/28 01:35:05;;;;;;;10.07;5.90;;;10.70;99.90;;;;;;4993609;28;20197;-75
2022/09/28 01:37:40;;;;;;;8.50;5.63;;;10.70;99.90;;;;;;4993657;28;20201;-79
2022/09/28 01:40:11;;;;;;;8.20;5.63;;;10.80;99.90;;;;;;4975770;28;20224;-78
2022/09/28 01:42:41;;;;;;;8.23;5.47;;;10.70;99.90;;;;;;4976106;28;20204;-75
2022/09/28 01:45:41;;;;;;;8.33;5.40;;;10.90;99.90;;;;;;4976240;28;20654;-80
2022/09/28 01:48:12;;;;;;;8.47;5.53;;;10.80;99.90;;;;;;4989638;28;20200;-75
2022/09/28 01:50:41;;;;;;;9.83;5.40;;;10.80;99.90;;;;;;4992593;28;20208;-77
2022/09/28 01:53:24;;;;;;;8.60;5.60;;;10.90;99.90;;;;;;4976501;28;20256;-75
2022/09/28 01:55:55;;;;;;;8.43;5.47;;;10.80;99.90;;;;;;4992176;28;20197;-76
2022/09/28 01:58:34;;;;;;;9.10;5.63;;;10.80;99.90;;;;;;4992332;28;20287;-76
2022/09/28 02:01:24;;;;;;;8.93;5.60;;;10.90;99.90;;;;;;4976379;28;20207;-75
2022/09/28 02:04:15;;;;;;;8.50;5.40;;;11.00;99.90;;;;;;4993908;28;20208;-76
2022/09/28 02:07:06;;;;;;;10.07;5.70;;;10.80;99.90;;;;;;4976244;28;20228;-76
2022/09/28 02:09:48;;;;;;;11.33;5.63;;;10.80;99.90;;;;;;4960093;28;20193;-79
2022/09/28 02:12:24;;;;;;;8.30;4.90;;;10.80;99.90;;;;;;4993446;28;20192;-77
2022/09/28 02:14:57;;;;;;;6.67;4.50;;;10.80;99.90;;;;;;4976215;28;20661;-79
2022/09/28 02:17:24;;;;;;;7.93;4.40;;;10.80;99.90;;;;;;4975888;28;20193;-76
2022/09/28 02:19:51;;;;;;;6.17;3.93;;;10.80;99.90;;;;;;4975724;28;20589;-75
2022/09/28 02:22:32;;;;;;;5.13;3.80;;;10.70;99.90;;;;;;5007570;28;20234;-75
2022/09/28 02:25:19;;;;;;;6.40;4.47;;;10.60;99.90;;;;;;4995558;28;20250;-76
2022/09/28 02:28:10;;;;;;;8.00;4.80;;;10.60;99.90;;;;;;5012997;28;20184;-76
2022/09/28 02:30:38;;;;;;;7.60;4.63;;;10.60;99.90;;;;;;4994783;28;20231;-75
2022/09/28 02:33:23;;;;;;;7.53;4.50;;;10.70;99.90;;;;;;4993371;28;20207;-77
2022/09/28 02:35:51;;;;;;;6.50;4.57;;;10.70;99.90;;;;;;4993124;28;20193;-77
2022/09/28 02:38:18;;;;;;;8.67;5.07;;;10.80;99.90;;;;;;4975861;28;20201;-76
2022/09/28 02:41:09;;;;;;;10.20;5.90;;;10.80;99.90;;;;;;4975709;28;20318;-76
2022/09/28 02:43:45;;;;;;;8.63;5.80;;;10.80;99.90;;;;;;4975743;28;20271;-76
2022/09/28 02:46:33;;;;;;;9.03;5.83;;;10.80;99.90;;;;;;4975339;28;20670;-75
2022/09/28 02:49:22;;;;;;;9.87;5.63;;;10.80;99.90;;;;;;4976012;28;20232;-76
2022/09/28 02:52:18;;;;;;;8.63;5.60;;;10.80;99.90;;;;;;4979278;28;20205;-76
2022/09/28 02:55:22;;;;;;;9.00;5.33;;;10.80;99.90;;;;;;4979332;28;20220;-76
2022/09/28 02:58:17;;;;;;;8.37;5.80;;;10.80;99.90;;;;;;4979613;28;20260;-77
2022/09/28 03:00:50;;;;;;;8.70;5.73;;;10.80;99.90;;;;;;4979225;28;20229;-77
2022/09/28 03:03:24;;;;;;;8.67;5.53;;;10.80;99.90;;;;;;4975911;28;20224;-77
2022/09/28 03:06:06;;;;;;;8.53;5.43;;;10.80;99.90;;;;;;4959199;28;20280;-77
2022/09/28 03:08:43;;;;;;;9.27;5.60;;;10.90;99.90;;;;;;4959834;28;20297;-76
2022/09/28 03:11:18;;;;;;;9.30;5.37;;;10.90;99.90;;;;;;4975736;28;20193;-76
2022/09/28 03:13:47;;;;;;;8.87;5.10;;;10.90;99.90;;;;;;4943949;28;20189;-76
2022/09/28 03:16:17;;;;;;;7.53;5.03;;;10.90;99.90;;;;;;4975603;28;20642;-76
2022/09/28 03:18:44;;;;;;;8.43;5.23;;;10.90;99.90;;;;;;4959734;28;20198;-77
2022/09/28 03:21:12;;;;;;;7.17;5.17;;;10.80;99.90;;;;;;4959328;28;20249;-77
2022/09/28 03:23:40;;;;;;;7.60;5.53;;;10.90;99.90;;;;;;4975842;28;20198;-77
2022/09/28 03:26:09;;;;;;;8.13;5.30;;;10.80;99.90;;;;;;4975543;28;20657;-79
2022/09/28 03:28:36;;;;;;;7.83;5.30;;;10.80;99.90;;;;;;4978507;28;20193;-77
2022/09/28 03:31:03;;;;;;;7.77;5.33;;;10.80;99.90;;;;;;4978692;28;20204;-78
2022/09/28 03:33:30;;;;;;;7.20;5.30;;;10.90;99.90;;;;;;4978504;28;20615;-77
2022/09/28 03:35:57;;;;;;;8.33;4.93;;;10.90;99.90;;;;;;4995382;28;20192;-78
2022/09/28 03:38:24;;;;;;;8.40;5.60;;;10.80;99.90;;;;;;4994500;28;20211;-77
2022/09/28 03:40:58;;;;;;;8.53;5.37;;;10.90;99.90;;;;;;4978569;28;20757;-78
2022/09/28 03:43:27;;;;;;;8.47;5.57;;;10.80;99.90;;;;;;4994639;28;20551;-79
2022/09/28 03:45:55;;;;;;;8.93;5.90;;;10.80;99.90;;;;;;4978206;28;20654;-77
2022/09/28 03:48:30;;;;;;;8.93;6.07;;;10.80;99.90;;;;;;4996088;28;20200;-78
2022/09/28 03:51:01;;;;;;;8.50;5.60;;;10.80;99.90;;;;;;4996414;28;20212;-77
2022/09/28 03:53:31;;;;;;;8.57;5.80;;;10.80;99.90;;;;;;4998016;28;20204;-78
2022/09/28 03:56:03;;;;;;;11.17;6.87;;;10.80;99.90;;;;;;4997561;28;20202;-77
2022/09/28 03:58:30;;;;;;;10.23;7.20;;;10.80;99.90;;;;;;4997987;28;20196;-76
2022/09/28 04:01:05;;;;;;;11.43;7.37;;;10.70;99.90;;;;;;4983083;28;20228;-77
2022/09/28 04:03:33;;;;;;;12.07;8.03;;;10.80;99.90;;;;;;4977501;28;20818;-77
2022/09/28 04:06:01;;;;;;;12.13;8.10;;;10.70;99.90;;;;;;4977555;28;20247;-78
2022/09/28 04:08:28;;;;;;;14.03;8.50;;;10.70;99.90;;;;;;4994114;28;20200;-78
2022/09/28 04:10:59;;;;;;;16.33;10.30;;;10.90;99.90;;;;;;4977998;28;20583;-75
2022/09/28 04:13:28;;;;;;;18.17;10.97;;;10.70;99.90;;;;;;4995632;28;20394;-78
2022/09/28 04:15:57;;;;;;;17.43;11.43;;;10.80;99.90;;;;;;4977540;28;20243;-77
2022/09/28 04:18:25;;;;;;;21.97;13.53;;;10.60;99.90;;;;;;4994046;28;20197;-78
2022/09/28 04:21:02;;;;;;;20.50;13.23;;;10.60;99.90;;;;;;4977547;28;20228;-78
2022/09/28 04:23:29;;;;;;;22.97;14.50;;;10.50;99.90;;;;;;4919062;29;20201;-78
2022/09/28 04:25:57;;;;;;;23.07;15.10;;;10.50;99.90;;;;;;4940234;29;20727;-79
2022/09/28 04:31:15;;;;;;;24.43;14.87;;;10.40;99.90;;;;;;4938225;29;20260;-77
2022/09/28 04:33:43;;;;;;;25.53;15.43;;;10.50;99.90;;;;;;4937972;29;20313;-77
2022/09/28 04:36:26;;;;;;;27.30;16.30;;;10.50;99.90;;;;;;4935490;29;20217;-76
2022/09/28 04:38:53;;;;;;;25.83;16.53;;;10.40;99.90;;;;;;4937942;29;20205;-78
2022/09/28 04:41:21;;;;;;;25.00;16.03;;;10.40;99.90;;;;;;4959986;28;20211;-77
2022/09/28 04:43:49;;;;;;;27.03;16.50;;;10.40;99.90;;;;;;4996687;28;20196;-80
2022/09/28 04:46:16;;;;;;;26.30;15.70;;;10.30;99.90;;;;;;5004081;28;20221;-77
2022/09/28 04:48:43;;;;;;;26.90;16.57;;;10.30;99.90;;;;;;4977205;28;20649;-79
2022/09/28 04:51:10;;;;;;;26.93;16.93;;;10.20;99.90;;;;;;4977100;28;20290;-78
2022/09/28 04:53:37;;;;;;;28.00;16.87;;;10.30;99.90;;;;;;4977221;28;20541;-80
2022/09/28 04:56:10;;;;;;;27.23;16.73;;;10.30;99.90;;;;;;4976784;28;20213;-79
2022/09/28 04:58:37;;;;;;;26.97;16.77;;;10.30;99.90;;;;;;4977177;28;20700;-80
2022/09/28 05:01:08;;;;;;;28.80;16.73;;;10.40;99.90;;;;;;4976610;28;20694;-80
2022/09/28 05:03:35;;;;;;;26.93;16.13;;;10.30;99.90;;;;;;4975436;28;20200;-77
2022/09/28 05:06:02;;;;;;;28.07;16.70;;;10.20;99.90;;;;;;4979571;28;20232;-79
2022/09/28 05:08:34;;;;;;;29.10;17.80;;;10.20;99.90;;;;;;4978574;28;20204;-80
2022/09/28 05:11:06;;;;;;;27.90;17.00;;;10.20;99.90;;;;;;4976858;28;20212;-81
2022/09/28 05:13:44;;;;;;;28.13;17.37;;;10.20;99.90;;;;;;4994144;28;20247;-80
2022/09/28 05:16:34;;;;;;;27.67;17.30;;;10.20;99.90;;;;;;4968293;28;20263;-78
2022/09/28 05:19:01;;;;;;;29.23;18.17;;;10.30;99.90;;;;;;4989532;28;20215;-79
2022/09/28 05:21:29;;;;;;;28.70;16.73;;;10.10;99.90;;;;;;4976891;28;20259;-81
2022/09/28 05:24:06;;;;;;;26.80;17.03;;;10.10;99.90;;;;;;4976428;28;20193;-81
2022/09/28 05:26:36;;;;;;;27.33;16.60;;;10.10;99.90;;;;;;4994274;28;20551;-81
2022/09/28 05:32:00;;;;;;;27.33;16.23;;;10.10;99.90;;;;;;4917064;29;20217;-81
2022/09/28 05:34:28;;;;;;;29.03;16.33;;;10.20;99.90;;;;;;4903442;29;20198;-79
2022/09/28 05:36:55;;;;;;;27.33;16.03;;;10.20;99.90;;;;;;4901605;29;20218;-79
2022/09/28 05:39:22;;;;;;;24.57;15.27;;;10.20;99.90;;;;;;4899512;29;20202;-78
2022/09/28 05:41:51;;;;;;;24.90;15.33;;;10.20;99.90;;;;;;4899874;29;20206;-80
2022/09/28 05:44:18;;;;;;;29.60;17.17;;;10.10;99.90;;;;;;4953294;23;20253;-83
2022/09/28 05:46:45;;;;;;;36.63;20.10;;;10.10;99.90;;;;;;5031694;23;20325;-83
2022/09/28 05:52:24;;;;;;;34.77;16.77;;;10.10;99.90;;;;;;5072252;23;20214;-77
2022/09/28 05:54:50;;;;;;;23.30;13.90;;;10.00;99.90;;;;;;5034569;28;20624;-81
2022/09/28 05:57:17;;;;;;;21.87;14.17;;;10.10;99.90;;;;;;5034847;28;20198;-78
2022/09/28 05:59:51;;;;;;;22.07;13.70;;;10.10;99.90;;;;;;5034350;28;20222;-74
2022/09/28 06:02:18;;;;;;;25.23;14.40;;;10.00;99.90;;;;;;5030030;28;20187;-78
2022/09/28 06:04:47;;;;;;;22.50;14.03;;;10.10;99.90;;;;;;5042371;28;20240;-76
2022/09/28 06:07:14;;;;;;;22.27;13.57;;;10.10;99.90;;;;;;5015236;28;20222;-77
2022/09/28 06:09:41;;;;;;;21.60;13.33;;;10.10;99.90;;;;;;5021993;28;20196;-75
2022/09/28 06:12:08;;;;;;;22.70;14.03;;;10.00;99.90;;;;;;5033011;28;20252;-76
2022/09/28 06:14:34;;;;;;;23.23;14.30;;;10.10;99.90;;;;;;5020603;28;20221;-73
2022/09/28 06:17:01;;;;;;;24.50;14.50;;;10.00;99.90;;;;;;5034782;28;20256;-78
2022/09/28 06:19:29;;;;;;;21.47;14.30;;;10.20;99.90;;;;;;5034612;28;20206;-76
2022/09/28 06:21:55;;;;;;;22.50;14.40;;;10.10;99.90;;;;;;5051332;28;20217;-78
2022/09/28 06:24:28;;;;;;;23.20;15.17;;;10.10;99.90;;;;;;5032261;28;20205;-74
2022/09/28 06:26:55;;;;;;;22.83;14.30;;;10.00;99.90;;;;;;5056373;28;20217;-76
2022/09/28 06:29:22;;;;;;;23.70;14.23;;;10.00;99.90;;;;;;5032207;28;20215;-74
2022/09/28 06:31:50;;;;;;;23.23;14.43;;;10.00;99.90;;;;;;5018909;28;20199;-78
2022/09/28 06:34:17;;;;;;;22.93;14.27;;;10.10;99.90;;;;;;5036285;28;20241;-79
2022/09/28 06:36:44;;;;;;;21.90;13.03;;;10.00;99.90;;;;;;5018118;28;20203;-73
2022/09/28 06:39:12;;;;;;;20.87;13.30;;;10.00;99.90;;;;;;5018410;28;20196;-72
2022/09/28 06:41:45;;;;;;;20.93;13.07;;;10.10;99.90;;;;;;5018416;28;20235;-74
2022/09/28 06:44:12;;;;;;;20.63;13.23;;;10.10;99.90;;;;;;5017779;28;20192;-77
2022/09/28 06:46:39;;;;;;;21.40;13.10;;;10.20;99.90;;;;;;5012304;28;20219;-75
2022/09/28 06:49:08;;;;;;;20.03;12.63;;;10.10;99.90;;;;;;5021156;28;20200;-74
2022/09/28 06:51:36;;;;;;;20.50;12.80;;;10.20;99.90;;;;;;5034887;28;20227;-75
2022/09/28 06:54:03;;;;;;;19.17;12.77;;;10.20;99.90;;;;;;5025235;28;20293;-75
2022/09/28 06:56:30;;;;;;;19.87;13.13;;;10.20;99.90;;;;;;5036651;28;20301;-75
2022/09/28 06:58:58;;;;;;;19.30;12.73;;;10.40;99.90;;;;;;5037350;28;20290;-74
2022/09/28 07:01:25;;;;;;;18.27;12.23;;;10.50;99.90;;;;;;5036796;28;20226;-75
2022/09/28 07:03:52;;;;;;;18.13;12.90;;;10.50;99.90;;;;;;5037005;28;20221;-74
2022/09/28 07:06:23;;;;;;;19.47;11.80;;;10.60;99.90;;;;;;5036828;28;20625;-74
2022/09/28 07:08:49;;;;;;;17.33;12.00;;;10.70;99.90;;;;;;5054482;28;20266;-73
2022/09/28 07:11:40;;;;;;;16.53;11.20;;;10.60;99.90;;;;;;5036847;28;20187;-74
2022/09/28 07:14:11;;;;;;;15.97;11.13;;;10.50;99.90;;;;;;5054327;28;20195;-74
2022/09/28 07:16:58;;;;;;;18.40;12.50;;;10.40;99.90;;;;;;5054227;28;20199;-73
2022/09/28 07:19:39;;;;;;;21.13;13.20;;;10.70;99.90;;;;;;5036096;28;20293;-82
2022/09/28 07:22:06;;;;;;;22.63;13.10;;;10.60;99.90;;;;;;5036501;28;20562;-81
2022/09/28 07:24:33;;;;;;;18.73;13.13;;;10.70;99.90;;;;;;5036134;28;20218;-79
2022/09/28 07:27:04;;;;;;;20.53;12.17;;;10.80;99.90;;;;;;5036349;28;20195;-77
2022/09/28 07:29:31;;;;;;;16.43;12.43;;;10.80;99.90;;;;;;5053855;28;20207;-76
2022/09/28 07:31:58;;;;;;;15.37;10.93;;;10.70;99.90;;;;;;5036537;28;20266;-76
2022/09/28 07:34:25;;;;;;;17.73;12.07;;;10.70;99.90;;;;;;5020098;28;20585;-78
2022/09/28 07:36:56;;;;;;;16.53;11.07;;;10.80;99.90;;;;;;5034847;28;20652;-73
2022/09/28 07:41:10;;;;;;;16.33;10.53;;;10.70;99.90;;;;;;5037546;28;20197;-75
2022/09/28 07:42:18;;;;;;;15.33;10.43;;;10.90;99.90;;;;;;5036103;28;20649;-75
2022/09/28 07:44:45;;;;;;;15.10;9.87;;;10.90;99.90;;;;;;5019696;28;20203;-75
2022/09/28 07:47:12;;;;;;;16.10;11.67;;;10.90;99.90;;;;;;5036308;28;20202;-75
2022/09/28 07:49:39;;;;;;;16.83;11.67;;;10.90;99.90;;;;;;5035990;28;20202;-75
2022/09/28 07:52:09;;;;;;;18.33;11.47;;;11.00;99.90;;;;;;4998566;28;1107360;-74
2022/09/28 07:54:38;;;;;;;19.33;13.10;;;11.00;99.90;;;;;;5054541;28;20189;-76
2022/09/28 07:57:05;;;;;;;17.20;11.97;;;11.00;99.90;;;;;;5020376;28;20564;-73
2022/09/28 07:59:33;;;;;;;17.57;11.57;;;11.10;99.90;;;;;;5053403;28;20205;-76
2022/09/28 08:01:59;;;;;;;18.10;12.03;;;11.30;99.90;;;;;;5054618;28;20268;-75
2022/09/28 08:04:27;;;;;;;18.37;11.80;;;11.30;99.90;;;;;;5036363;28;20199;-74
2022/09/28 08:06:54;;;;;;;15.27;11.80;;;11.20;99.90;;;;;;5036904;28;20190;-75
2022/09/28 08:09:20;;;;;;;16.93;11.30;;;11.20;99.90;;;;;;5036200;28;20278;-76
2022/09/28 08:12:00;;;;;;;15.70;11.07;;;11.20;99.90;;;;;;5036594;28;20191;-75
2022/09/28 08:14:27;;;;;;;14.50;10.23;;;11.30;99.90;;;;;;5036371;28;20194;-74
2022/09/28 08:16:57;;;;;;;13.67;9.90;;;11.40;99.90;;;;;;5036245;28;20202;-74
2022/09/28 08:19:24;;;;;;;12.13;9.17;;;11.50;99.90;;;;;;5036508;28;20628;-76
2022/09/28 08:21:50;;;;;;;13.00;9.00;;;11.40;99.90;;;;;;5036672;28;20234;-73
2022/09/28 08:24:17;;;;;;;12.97;8.40;;;11.50;99.90;;;;;;5054246;28;20693;-75
2022/09/28 08:26:46;;;;;;;11.83;8.50;;;11.50;99.90;;;;;;5036585;28;20209;-76
2022/09/28 08:29:14;;;;;;;10.57;8.13;;;11.60;99.90;;;;;;5036180;28;20230;-76
2022/09/28 08:31:41;;;;;;;12.37;8.10;;;11.90;99.90;;;;;;5036384;28;20199;-76
2022/09/28 08:34:13;;;;;;;9.63;7.50;;;12.10;99.90;;;;;;5054179;28;20199;-75
2022/09/28 08:36:40;;;;;;;11.37;7.17;;;12.10;99.90;;;;;;5036024;28;20206;-78
2022/09/28 08:39:13;;;;;;;9.40;7.53;;;12.10;99.90;;;;;;5054238;28;20244;-76
2022/09/28 08:42:07;;;;;;;10.87;7.33;;;12.30;99.90;;;;;;5019453;28;20302;-76
2022/09/28 08:44:42;;;;;;;12.93;7.20;;;12.40;99.90;;;;;;5035986;28;20198;-75
2022/09/28 08:51:06;;;;;;;9.10;6.33;;;12.70;99.90;;;;;;4992079;28;20789;-75
2022/09/28 08:54:23;;;;;;;10.33;6.83;;;12.90;99.90;;;;;;4975871;28;20304;-75
2022/09/28 08:57:11;;;;;;;9.93;6.87;;;13.00;99.90;;;;;;4937268;29;20563;-74
2022/09/28 08:59:45;;;;;;;8.90;6.40;;;13.20;99.90;;;;;;4937436;29;20604;-74
2022/09/28 09:02:19;;;;;;;8.20;6.00;;;13.30;99.90;;;;;;4937314;29;20244;-76
2022/09/28 09:04:46;;;;;;;8.17;5.50;;;13.40;99.90;;;;;;4953395;29;20270;-75
2022/09/28 09:07:24;;;;;;;8.63;5.27;;;13.30;99.90;;;;;;4920963;29;20211;-75
2022/09/28 09:10:11;;;;;;;7.33;5.40;;;13.50;99.90;;;;;;4952955;29;20566;-74
2022/09/28 09:13:01;;;;;;;7.97;5.80;;;13.70;99.90;;;;;;4936984;29;20218;-75
2022/09/28 09:15:46;;;;;;;6.60;5.07;;;14.00;99.90;;;;;;4936839;29;20209;-76
2022/09/28 09:18:30;;;;;;;6.93;5.10;;;14.30;99.90;;;;;;4953206;29;20206;-76
2022/09/28 09:21:33;;;;;;;7.30;4.90;;;14.50;99.90;;;;;;4936721;29;20255;-77
2022/09/28 09:24:20;;;;;;;7.17;4.37;;;14.50;99.90;;;;;;4861698;29;20201;-74
2022/09/28 09:26:54;;;;;;;5.47;4.27;;;14.40;99.90;;;;;;4895788;29;20222;-75
2022/09/28 09:29:46;;;;;;;6.50;4.20;;;14.40;99.90;;;;;;4898783;29;20230;-75
2022/09/28 09:32:30;;;;;;;6.33;4.37;;;14.50;99.90;;;;;;4900760;29;20627;-78
2022/09/28 09:35:15;;;;;;;5.23;3.90;;;14.50;99.90;;;;;;4936481;29;20194;-76
2022/09/28 09:38:05;;;;;;;6.77;4.00;;;14.40;99.90;;;;;;4952716;29;20655;-75
2022/09/28 09:41:04;;;;;;;5.47;3.87;;;14.30;99.90;;;;;;4952593;29;20270;-74
2022/09/28 09:43:31;;;;;;;6.17;3.83;;;14.10;99.90;;;;;;4934392;29;20656;-75
2022/09/28 09:46:29;;;;;;;4.70;3.40;;;14.10;99.90;;;;;;4952718;29;20206;-76
2022/09/28 09:49:20;;;;;;;5.23;3.43;;;14.50;99.90;;;;;;4936782;29;20256;-76
2022/09/28 09:51:57;;;;;;;7.53;3.67;;;14.60;99.90;;;;;;4936598;29;20600;-76
2022/09/28 09:54:36;;;;;;;7.40;3.40;;;14.90;99.90;;;;;;4936623;29;20209;-76
2022/09/28 09:57:24;;;;;;;5.83;3.47;;;15.50;99.90;;;;;;4936681;29;20202;-74
2022/09/28 09:59:51;;;;;;;4.13;2.93;;;16.20;99.90;;;;;;5010409;28;20268;-80
2022/09/28 10:02:34;;;;;;;4.23;2.80;;;16.80;99.90;;;;;;5052419;28;20214;-77
2022/09/28 10:05:14;;;;;;;5.33;2.70;;;17.10;99.90;;;;;;5034651;28;20202;-74
2022/09/28 10:07:57;;;;;;;4.17;2.50;;;17.30;99.90;;;;;;5035026;28;20190;-78
2022/09/28 10:10:39;;;;;;;4.77;2.57;;;17.60;99.90;;;;;;5018308;28;20220;-76
2022/09/28 10:13:08;;;;;;;4.37;2.57;;;17.40;99.90;;;;;;5035029;28;20527;-74
2022/09/28 10:15:35;;;;;;;3.40;2.73;;;17.40;99.90;;;;;;5034685;28;20659;-74
2022/09/28 10:18:08;;;;;;;4.03;2.73;;;17.10;99.90;;;;;;5034941;28;20198;-75
2022/09/28 10:20:41;;;;;;;3.70;2.73;;;16.60;99.90;;;;;;5052488;28;20194;-75
2022/09/28 10:23:25;;;;;;;3.67;2.73;;;16.70;99.90;;;;;;5034587;28;20203;-74
2022/09/28 10:26:06;;;;;;;3.53;2.67;;;16.60;99.90;;;;;;5034221;28;20600;-75
2022/09/28 10:28:43;;;;;;;3.90;2.50;;;16.60;99.90;;;;;;5035562;28;20372;-74
2022/09/28 10:31:35;;;;;;;3.60;2.40;;;16.20;99.90;;;;;;5034593;28;20670;-76
2022/09/28 10:34:03;;;;;;;4.23;2.83;;;16.00;99.90;;;;;;5034600;28;20640;-74
2022/09/28 10:36:37;;;;;;;3.40;2.50;;;15.80;99.90;;;;;;5034249;28;20191;-75
2022/09/28 10:39:05;;;;;;;3.60;2.30;;;15.40;99.90;;;;;;5034337;28;20602;-77
2022/09/28 10:41:32;;;;;;;3.63;2.27;;;15.50;99.90;;;;;;5034381;28;20222;-74
2022/09/28 10:44:05;;;;;;;5.37;2.50;;;15.40;99.90;;;;;;5035144;28;20533;-74
2022/09/28 10:46:33;;;;;;;3.00;2.20;;;15.20;99.90;;;;;;5034765;28;20241;-73
2022/09/28 10:49:16;;;;;;;3.57;2.17;;;15.30;99.90;;;;;;5034504;28;20549;-75
2022/09/28 10:51:48;;;;;;;4.03;1.97;;;15.50;99.90;;;;;;5034223;28;20223;-75
2022/09/28 10:54:18;;;;;;;3.00;2.03;;;15.90;99.90;;;;;;5052769;28;20187;-75
2022/09/28 10:56:46;;;;;;;2.57;2.10;;;16.20;99.90;;;;;;5052373;28;20198;-76
2022/09/28 10:59:28;;;;;;;3.73;1.90;;;16.70;99.90;;;;;;5052191;28;20660;-75
2022/09/28 11:02:11;;;;;;;2.60;1.80;;;16.90;99.90;;;;;;5034139;28;20313;-74
2022/09/28 11:04:41;;;;;;;3.00;1.60;;;16.30;99.90;;;;;;5033964;28;20197;-74
2022/09/28 11:07:19;;;;;;;3.00;1.70;;;16.10;99.90;;;;;;5052330;28;20237;-75
2022/09/28 11:09:48;;;;;;;1.93;1.47;;;16.00;99.90;;;;;;5052022;28;20190;-74
2022/09/28 11:12:44;;;;;;;4.63;1.70;;;15.60;99.90;;;;;;5036451;28;20203;-75
2022/09/28 11:15:20;;;;;;;2.73;1.50;;;15.30;99.90;;;;;;5037520;28;20191;-75
2022/09/28 11:17:47;;;;;;;3.27;1.80;;;15.10;99.90;;;;;;5037797;28;20223;-75
2022/09/28 11:20:23;;;;;;;1.80;1.40;;;14.90;99.90;;;;;;5037677;28;20199;-75
2022/09/28 11:22:59;;;;;;;2.50;1.70;;;14.90;99.90;;;;;;5055666;28;20604;-75
2022/09/28 11:25:29;;;;;;;2.40;1.60;;;15.10;99.90;;;;;;5037204;28;20511;-76
2022/09/28 11:28:17;;;;;;;2.60;1.70;;;15.90;99.90;;;;;;5055265;28;20533;-76
2022/09/28 11:30:52;;;;;;;2.27;1.40;;;17.20;99.90;;;;;;5037160;28;20218;-74
2022/09/28 11:33:40;;;;;;;2.97;1.30;;;17.80;99.90;;;;;;5037153;28;20201;-75
2022/09/28 11:36:13;;;;;;;2.17;1.20;;;18.10;99.90;;;;;;5037122;28;20217;-75
2022/09/28 11:38:59;;;;;;;1.70;1.23;;;17.60;99.90;;;;;;5055391;28;20606;-74
2022/09/28 11:41:44;;;;;;;3.00;1.40;;;17.30;99.90;;;;;;5054843;28;20210;-75
2022/09/28 11:44:17;;;;;;;2.30;1.47;;;17.20;99.90;;;;;;5037387;28;20248;-75
2022/09/28 11:47:03;;;;;;;4.20;1.63;;;17.10;99.90;;;;;;5037193;28;20206;-75
2022/09/28 11:49:56;;;;;;;2.63;1.50;;;17.10;99.90;;;;;;5037287;28;20194;-74
2022/09/28 11:52:35;;;;;;;3.10;1.57;;;16.90;99.90;;;;;;5036716;28;20243;-75
2022/09/28 11:55:06;;;;;;;2.87;1.60;;;16.80;99.90;;;;;;5037420;28;20601;-75
2022/09/28 11:57:39;;;;;;;4.13;1.70;;;16.70;99.90;;;;;;5036874;28;20187;-73
2022/09/28 12:00:23;;;;;;;2.73;1.43;;;16.50;99.90;;;;;;5037371;28;20644;-73
2022/09/28 12:03:00;;;;;;;2.37;1.63;;;16.40;99.90;;;;;;5036612;28;20229;-74
2022/09/28 12:05:32;;;;;;;4.07;1.70;;;15.90;99.90;;;;;;5036592;28;20190;-73
2022/09/28 12:08:08;;;;;;;2.17;1.40;;;15.80;99.90;;;;;;5036912;28;20496;-74
2022/09/28 12:10:42;;;;;;;4.33;1.53;;;15.60;99.90;;;;;;5036568;28;20194;-74
2022/09/28 12:13:17;;;;;;;2.77;1.60;;;15.30;99.90;;;;;;5036106;28;20252;-75
2022/09/28 12:15:54;;;;;;;2.30;1.67;;;15.00;99.90;;;;;;5036378;28;20671;-76
2022/09/28 12:18:54;;;;;;;2.97;1.60;;;15.10;99.90;;;;;;5036434;28;20593;-74
2022/09/28 12:21:39;;;;;;;3.17;1.83;;;15.00;99.90;;;;;;5036635;28;20218;-77
2022/09/28 12:24:24;;;;;;;2.20;1.60;;;14.90;99.90;;;;;;5035951;28;20540;-76
2022/09/28 12:26:57;;;;;;;2.87;1.73;;;14.50;99.90;;;;;;5037012;28;20195;-76
2022/09/28 12:29:30;;;;;;;4.27;1.80;;;14.30;99.90;;;;;;5036801;28;20202;-79
2022/09/28 12:32:25;;;;;;;2.80;1.77;;;14.30;99.90;;;;;;5054150;28;20186;-77
2022/09/28 12:34:52;;;;;;;2.50;1.80;;;14.80;99.90;;;;;;5020018;28;20278;-75
2022/09/28 12:37:35;;;;;;;1.90;1.70;;;15.10;99.90;;;;;;5036040;28;20197;-74
2022/09/28 12:40:21;;;;;;;4.40;1.80;;;16.10;99.90;;;;;;5036241;28;20240;-75
2022/09/28 12:43:06;;;;;;;2.97;1.60;;;17.60;99.90;;;;;;5035506;28;20749;-76
2022/09/28 12:45:41;;;;;;;3.93;1.40;;;18.70;99.90;;;;;;5035940;28;20191;-74
2022/09/28 12:48:55;;;;;;;2.13;1.27;;;18.90;99.90;;;;;;5035995;28;20191;-73
2022/09/28 12:51:53;;;;;;;3.43;1.50;;;18.80;99.90;;;;;;5035704;28;20637;-73
2022/09/28 12:54:45;;;;;;;1.63;1.40;;;18.60;99.90;;;;;;5035793;28;20635;-75
2022/09/28 12:57:25;;;;;;;4.87;2.07;;;17.90;99.90;;;;;;5019221;28;20199;-73
2022/09/28 13:00:14;;;;;;;4.07;1.70;;;17.50;99.90;;;;;;5019593;28;20194;-73
2022/09/28 13:03:08;;;;;;;2.80;1.70;;;17.40;99.90;;;;;;5035760;28;20230;-74
2022/09/28 13:05:59;;;;;;;1.53;1.33;;;17.00;99.90;;;;;;5053338;28;20187;-75
2022/09/28 13:08:44;;;;;;;2.57;1.57;;;16.80;99.90;;;;;;5035677;28;20652;-75
2022/09/28 13:11:17;;;;;;;2.63;1.60;;;16.70;99.90;;;;;;5035353;28;20199;-77
2022/09/28 13:13:53;;;;;;;1.90;1.60;;;16.70;99.90;;;;;;5053515;28;20276;-78
2022/09/28 13:16:49;;;;;;;2.27;1.60;;;16.70;99.90;;;;;;5035341;28;20199;-74
2022/09/28 13:19:22;;;;;;;3.50;1.80;;;16.70;99.90;;;;;;5053200;28;20198;-73
2022/09/28 13:22:01;;;;;;;3.00;1.73;;;16.40;99.90;;;;;;5035296;28;20228;-75
2022/09/28 13:24:32;;;;;;;2.33;1.80;;;16.20;99.90;;;;;;5035516;28;20686;-74
2022/09/28 13:27:10;;;;;;;2.50;1.70;;;16.10;99.90;;;;;;5035064;28;20194;-73
2022/09/28 13:29:40;;;;;;;2.80;1.80;;;16.20;99.90;;;;;;5035085;28;20295;-75
2022/09/28 13:32:11;;;;;;;4.10;2.00;;;16.10;99.90;;;;;;5035100;28;20249;-78